Terminal Aerodrome Forecast
Issued by NWS Mt. Holly, NJ

Home | Current Version | Previous Version | Text Only | Print | Product List | Glossary On
Versions: 1 2 3 4 5 6 7 8 9 10 11 12 13
045
FTUS41 KPHI 291735
TAFTTN
TAF
KTTN 291735Z 2918/3018 21008KT P6SM BKN200
     FM292300 19004KT P6SM OVC100
     FM300300 19003KT 5SM -RA BR OVC020
      TEMPO 3006/3010 4SM RA BKN015
     FM301000 36003KT 4SM -RA BR OVC015
      TEMPO 3010/3013 2SM -RA BR OVC007
     FM301300 00000KT 2SM -RA BR OVC007
     FM301700 VRB03KT 4SM -RA BR OVC007=

USA.gov is the U.S. government's official web portal to all federal, state and local government web resources and services.